Time;durP1;ratioP1;P1;durP2;ratioP2;P2;SDS_P1;SDS_P2;PMS_P1;PMS_P2;Temp;Humidity;BMP_temperature;BMP_pressure;BME280_temperature;BME280_humidity;BME280_pressure;Samples;Min_cycle;Max_cycle;Signal;HPM_P1;HPM_P2
2022/11/04 00:01:12;;;;;;;6.03;2.80;;;;;;;;;;4992390;28;20751;-64
2022/11/04 00:03:37;;;;;;;6.10;2.80;;;;;;;;;;4993538;28;20217;-63
2022/11/04 00:06:03;;;;;;;8.77;3.30;;;;;;;;;;4993044;28;20585;-64
2022/11/04 00:08:28;;;;;;;5.80;3.60;;;;;;;;;;4992726;28;20221;-63
2022/11/04 00:13:38;;;;;;;5.47;3.47;;;;;;;;;;4984257;28;20263;-63
2022/11/04 00:18:47;;;;;;;10.00;4.10;;;;;;;;;;4993438;28;20215;-63
2022/11/04 00:29:25;;;;;;;11.27;5.63;;;;;;;;;;4983720;28;20217;-63
2022/11/04 00:34:34;;;;;;;7.47;5.75;;;;;;;;;;4992342;28;20215;-64
2022/11/04 00:37:01;;;;;;;9.75;6.55;;;;;;;;;;4992939;28;20209;-63
2022/11/04 00:39:27;;;;;;;10.10;6.68;;;;;;;;;;4992578;28;20245;-63
2022/11/04 00:41:52;;;;;;;10.50;7.25;;;;;;;;;;4992308;28;20267;-63
2022/11/04 00:44:17;;;;;;;10.52;7.35;;;;;;;;;;4992334;28;20551;-64
2022/11/04 00:46:42;;;;;;;11.63;8.23;;;;;;;;;;4992754;28;20310;-64
2022/11/04 00:49:08;;;;;;;14.07;10.07;;;;;;;;;;4992150;28;20213;-64
2022/11/04 00:51:33;;;;;;;13.63;10.68;;;;;;;;;;4992566;28;20254;-64
2022/11/04 00:53:58;;;;;;;15.52;12.38;;;;;;;;;;4993042;28;20221;-63
2022/11/04 00:56:23;;;;;;;13.43;11.60;;;;;;;;;;4992033;28;20276;-64
2022/11/04 00:58:49;;;;;;;11.00;8.82;;;;;;;;;;4992312;28;20225;-63
2022/11/04 01:01:20;;;;;;;10.95;7.53;;;;;;;;;;4992356;28;20216;-65
2022/11/04 01:03:47;;;;;;;8.60;6.15;;;;;;;;;;4992252;28;20212;-64
2022/11/04 01:06:12;;;;;;;8.45;6.90;;;;;;;;;;4992367;28;20702;-64
2022/11/04 01:08:39;;;;;;;7.53;5.55;;;;;;;;;;4992786;28;20213;-63
2022/11/04 01:11:04;;;;;;;8.75;5.63;;;;;;;;;;4991482;28;20224;-64
2022/11/04 01:13:29;;;;;;;7.30;4.80;;;;;;;;;;4992340;28;20217;-64
2022/11/04 01:15:56;;;;;;;5.80;4.63;;;;;;;;;;5007630;28;20225;-64
2022/11/04 01:18:22;;;;;;;5.75;4.07;;;;;;;;;;4991590;28;20209;-63
2022/11/04 01:20:47;;;;;;;4.63;2.90;;;;;;;;;;4992738;28;20220;-63
2022/11/04 01:23:12;;;;;;;4.95;3.20;;;;;;;;;;4992234;28;20769;-64
2022/11/04 01:25:38;;;;;;;4.18;2.63;;;;;;;;;;4991988;28;20251;-63
2022/11/04 01:28:03;;;;;;;3.58;2.45;;;;;;;;;;4990279;28;20209;-64
2022/11/04 01:30:28;;;;;;;3.25;2.20;;;;;;;;;;4982461;28;20296;-64
2022/11/04 01:32:54;;;;;;;3.67;2.13;;;;;;;;;;4972465;28;20587;-63
2022/11/04 01:35:19;;;;;;;4.70;2.08;;;;;;;;;;4973023;28;20217;-63
2022/11/04 01:37:44;;;;;;;2.80;1.75;;;;;;;;;;4975131;28;20217;-63
2022/11/04 01:40:10;;;;;;;2.10;1.70;;;;;;;;;;4989459;28;20234;-64
2022/11/04 01:42:35;;;;;;;5.43;1.80;;;;;;;;;;4996057;28;20242;-63
2022/11/04 01:45:00;;;;;;;3.13;1.77;;;;;;;;;;4994865;28;20287;-64
2022/11/04 01:47:30;;;;;;;2.42;1.63;;;;;;;;;;4995791;28;20210;-64
2022/11/04 01:49:57;;;;;;;2.25;1.40;;;;;;;;;;4994883;28;20231;-63
2022/11/04 01:52:25;;;;;;;2.95;1.60;;;;;;;;;;4994991;28;20209;-63
2022/11/04 01:54:50;;;;;;;3.70;1.85;;;;;;;;;;4994427;28;20212;-63
2022/11/04 01:57:18;;;;;;;4.65;1.90;;;;;;;;;;4995333;28;20213;-63
2022/11/04 01:59:43;;;;;;;3.20;2.10;;;;;;;;;;4993635;28;20229;-63
2022/11/04 02:02:08;;;;;;;6.05;2.50;;;;;;;;;;4993884;28;20606;-63
2022/11/04 02:04:34;;;;;;;5.07;3.10;;;;;;;;;;4995818;28;20209;-63
2022/11/04 02:06:59;;;;;;;5.82;3.58;;;;;;;;;;4993735;28;20216;-63
2022/11/04 02:09:25;;;;;;;7.28;4.60;;;;;;;;;;4995290;28;20216;-63
2022/11/04 02:14:35;;;;;;;8.35;6.18;;;;;;;;;;4986101;28;20562;-63
2022/11/04 02:17:09;;;;;;;11.45;7.30;;;;;;;;;;4995442;28;20209;-63
2022/11/04 02:19:49;;;;;;;12.82;8.68;;;;;;;;;;5003438;28;20292;-63
2022/11/04 02:22:30;;;;;;;11.85;9.55;;;;;;;;;;5009224;28;20672;-63
2022/11/04 02:25:02;;;;;;;14.10;10.88;;;;;;;;;;5010481;28;20229;-63
2022/11/04 02:27:29;;;;;;;14.88;11.52;;;;;;;;;;5009707;28;20216;-63
2022/11/04 02:29:55;;;;;;;17.67;12.90;;;;;;;;;;5009976;28;20232;-63
2022/11/04 02:32:24;;;;;;;14.90;12.60;;;;;;;;;;4994711;28;20245;-63
2022/11/04 02:34:50;;;;;;;17.42;14.50;;;;;;;;;;4994307;28;20312;-63
2022/11/04 02:37:32;;;;;;;18.92;15.32;;;;;;;;;;4994817;28;20227;-63
2022/11/04 02:40:04;;;;;;;19.88;14.85;;;;;;;;;;4994930;28;20209;-63
2022/11/04 02:42:35;;;;;;;20.17;16.85;;;;;;;;;;5005760;28;20666;-63
2022/11/04 02:45:05;;;;;;;21.13;16.20;;;;;;;;;;4990207;28;20253;-63
2022/11/04 02:47:31;;;;;;;21.70;17.00;;;;;;;;;;5000876;28;20209;-63
2022/11/04 02:49:58;;;;;;;23.40;18.45;;;;;;;;;;5008763;28;20300;-63
2022/11/04 02:52:24;;;;;;;23.70;17.50;;;;;;;;;;5009533;28;20240;-63
2022/11/04 02:54:52;;;;;;;23.50;17.25;;;;;;;;;;4994806;28;20220;-63
2022/11/04 02:57:19;;;;;;;23.20;18.38;;;;;;;;;;5008720;28;20220;-63
2022/11/04 02:59:46;;;;;;;19.67;17.42;;;;;;;;;;5009405;28;20225;-63
2022/11/04 03:02:14;;;;;;;24.77;18.75;;;;;;;;;;5008727;28;20677;-63
2022/11/04 03:04:40;;;;;;;22.67;19.10;;;;;;;;;;5009462;28;20312;-63
2022/11/04 03:07:06;;;;;;;23.65;19.60;;;;;;;;;;5009379;28;20213;-63
2022/11/04 03:09:32;;;;;;;22.42;18.85;;;;;;;;;;4993798;28;20264;-63
2022/11/04 03:12:00;;;;;;;24.65;19.88;;;;;;;;;;5009143;28;20229;-63
2022/11/04 03:14:27;;;;;;;26.52;20.08;;;;;;;;;;5008570;28;20227;-63
2022/11/04 03:16:53;;;;;;;22.10;18.77;;;;;;;;;;5008486;28;20212;-63
2022/11/04 03:19:27;;;;;;;26.08;18.92;;;;;;;;;;5008919;28;20311;-63
2022/11/04 03:21:54;;;;;;;20.55;18.38;;;;;;;;;;4994350;28;20216;-63
2022/11/04 03:24:19;;;;;;;22.08;19.17;;;;;;;;;;4993030;28;20217;-63
2022/11/04 03:26:48;;;;;;;22.52;18.60;;;;;;;;;;4994173;28;20271;-63
2022/11/04 03:29:25;;;;;;;23.92;19.42;;;;;;;;;;4992362;28;20301;-63
2022/11/04 03:31:58;;;;;;;26.92;19.63;;;;;;;;;;5008193;28;20620;-63
2022/11/04 03:34:24;;;;;;;24.50;20.15;;;;;;;;;;5008616;28;20225;-63
2022/11/04 03:36:49;;;;;;;26.48;20.85;;;;;;;;;;5009235;28;20240;-63
2022/11/04 03:39:14;;;;;;;24.17;20.65;;;;;;;;;;4992575;28;20209;-63
2022/11/04 03:41:41;;;;;;;24.17;20.45;;;;;;;;;;5009003;28;20209;-63
2022/11/04 03:44:06;;;;;;;24.20;18.80;;;;;;;;;;5008529;28;20217;-63
2022/11/04 03:46:32;;;;;;;25.20;18.45;;;;;;;;;;4992891;28;20228;-63
2022/11/04 03:48:57;;;;;;;24.02;19.58;;;;;;;;;;4993849;28;20657;-63
2022/11/04 03:51:23;;;;;;;21.98;19.38;;;;;;;;;;4992662;28;20205;-63
2022/11/04 03:53:48;;;;;;;25.73;19.90;;;;;;;;;;4993500;28;20271;-63
2022/11/04 03:56:19;;;;;;;24.50;20.02;;;;;;;;;;4993363;28;20308;-63
2022/11/04 03:58:48;;;;;;;24.77;18.75;;;;;;;;;;5008211;28;20229;-63
2022/11/04 04:01:26;;;;;;;24.60;19.88;;;;;;;;;;5007674;28;20224;-63
2022/11/04 04:03:54;;;;;;;24.55;17.90;;;;;;;;;;4993538;28;20263;-62
2022/11/04 04:06:22;;;;;;;23.98;18.77;;;;;;;;;;4991998;28;20764;-63
2022/11/04 04:08:48;;;;;;;20.15;16.30;;;;;;;;;;5008558;28;20220;-63
2022/11/04 04:11:14;;;;;;;21.90;17.42;;;;;;;;;;5008010;28;20216;-63
2022/11/04 04:13:45;;;;;;;25.88;17.27;;;;;;;;;;4992530;28;20216;-63
2022/11/04 04:16:17;;;;;;;25.63;17.27;;;;;;;;;;5008027;28;20244;-63
2022/11/04 04:18:44;;;;;;;23.38;18.02;;;;;;;;;;5008349;28;20231;-63
2022/11/04 04:21:11;;;;;;;20.45;15.77;;;;;;;;;;5006942;28;20344;-63
2022/11/04 04:29:05;;;;;;;26.45;13.95;;;;;;;;;;5005496;28;20292;-63
2022/11/04 04:31:48;;;;;;;24.67;13.38;;;;;;;;;;5007952;28;20217;-63
2022/11/04 04:34:14;;;;;;;16.52;12.18;;;;;;;;;;5004807;28;20212;-63
2022/11/04 04:36:44;;;;;;;17.67;12.40;;;;;;;;;;4993136;28;20201;-63
2022/11/04 04:47:21;;;;;;;17.20;11.88;;;;;;;;;;4988461;28;20266;-63
2022/11/04 04:49:50;;;;;;;17.95;10.95;;;;;;;;;;5007268;28;20213;-63
2022/11/04 04:52:15;;;;;;;17.13;9.93;;;;;;;;;;4992416;28;20209;-63
2022/11/04 04:54:40;;;;;;;15.93;10.48;;;;;;;;;;5007459;28;20216;-63
2022/11/04 04:57:05;;;;;;;16.42;9.55;;;;;;;;;;4992273;28;20296;-63
2022/11/04 04:59:31;;;;;;;18.80;10.90;;;;;;;;;;4992881;28;20295;-63
2022/11/04 05:01:56;;;;;;;16.48;10.82;;;;;;;;;;4992173;28;20328;-63
2022/11/04 05:04:21;;;;;;;16.92;9.98;;;;;;;;;;4992085;28;20672;-63
2022/11/04 05:06:47;;;;;;;16.83;9.68;;;;;;;;;;4992497;28;20221;-63
2022/11/04 05:09:12;;;;;;;17.75;10.82;;;;;;;;;;4991696;28;20221;-63
2022/11/04 05:11:37;;;;;;;15.50;9.88;;;;;;;;;;4993803;28;20205;-63
2022/11/04 05:14:02;;;;;;;14.38;8.88;;;;;;;;;;4996107;28;20213;-63
2022/11/04 05:16:28;;;;;;;15.48;8.88;;;;;;;;;;4995852;28;20209;-63
2022/11/04 05:18:53;;;;;;;18.13;8.98;;;;;;;;;;4996480;28;20554;-63
2022/11/04 05:21:18;;;;;;;12.30;8.25;;;;;;;;;;4995907;28;20217;-63
2022/11/04 05:23:43;;;;;;;13.88;7.75;;;;;;;;;;4995764;28;20225;-63
2022/11/04 05:26:09;;;;;;;13.63;8.18;;;;;;;;;;4994622;28;20271;-63
2022/11/04 05:28:34;;;;;;;12.75;7.72;;;;;;;;;;4987479;28;20688;-63
2022/11/04 05:31:05;;;;;;;14.50;7.97;;;;;;;;;;4976122;28;20214;-63
2022/11/04 05:33:30;;;;;;;13.80;7.63;;;;;;;;;;4991473;28;20205;-63
2022/11/04 05:36:04;;;;;;;14.18;7.43;;;;;;;;;;4976749;28;20205;-63
2022/11/04 05:38:29;;;;;;;13.68;7.07;;;;;;;;;;4975616;28;20209;-63
2022/11/04 05:40:56;;;;;;;11.32;6.93;;;;;;;;;;4996025;28;20209;-63
2022/11/04 05:43:21;;;;;;;10.32;6.13;;;;;;;;;;4995463;28;20213;-63
2022/11/04 05:45:46;;;;;;;14.93;7.07;;;;;;;;;;4995241;28;20234;-63
2022/11/04 05:48:12;;;;;;;13.43;6.70;;;;;;;;;;5010652;28;20297;-63
2022/11/04 05:50:37;;;;;;;13.32;7.10;;;;;;;;;;4995824;28;20579;-63
2022/11/04 05:53:02;;;;;;;14.23;7.60;;;;;;;;;;4993382;28;20267;-64
2022/11/04 05:55:28;;;;;;;17.52;7.82;;;;;;;;;;4995913;28;20209;-63
2022/11/04 05:57:53;;;;;;;14.07;7.47;;;;;;;;;;4995749;28;20224;-63
2022/11/04 06:00:18;;;;;;;15.35;7.55;;;;;;;;;;4994950;28;20758;-63
2022/11/04 06:02:44;;;;;;;15.10;7.30;;;;;;;;;;4995678;28;20220;-63
2022/11/04 06:05:09;;;;;;;14.32;7.03;;;;;;;;;;4994522;28;20225;-63
2022/11/04 06:07:34;;;;;;;14.02;7.15;;;;;;;;;;4994240;28;20279;-63
2022/11/04 06:09:59;;;;;;;13.40;6.60;;;;;;;;;;4995670;28;20580;-63
2022/11/04 06:12:25;;;;;;;15.55;6.53;;;;;;;;;;4994379;28;20359;-62
2022/11/04 06:14:50;;;;;;;11.73;6.90;;;;;;;;;;4995495;28;20202;-62
2022/11/04 06:17:16;;;;;;;12.10;6.43;;;;;;;;;;4995219;28;20223;-63
2022/11/04 06:19:41;;;;;;;16.77;8.40;;;;;;;;;;4993167;28;20425;-63
2022/11/04 06:22:08;;;;;;;11.45;6.55;;;;;;;;;;4994083;28;20208;-64
2022/11/04 06:24:33;;;;;;;12.48;7.32;;;;;;;;;;5008499;28;20213;-63
2022/11/04 06:26:58;;;;;;;16.15;6.78;;;;;;;;;;4992807;28;20251;-64
2022/11/04 06:29:23;;;;;;;13.30;6.28;;;;;;;;;;5009264;28;22092;-63
2022/11/04 06:31:49;;;;;;;14.88;6.30;;;;;;;;;;4994753;28;20209;-63
2022/11/04 06:34:14;;;;;;;12.35;6.22;;;;;;;;;;4993458;28;20665;-64
2022/11/04 06:36:39;;;;;;;14.40;6.15;;;;;;;;;;4993686;28;20232;-63
2022/11/04 06:39:05;;;;;;;11.57;5.90;;;;;;;;;;4993913;28;20213;-63
2022/11/04 06:41:30;;;;;;;14.43;6.22;;;;;;;;;;4992634;28;20209;-64
2022/11/04 06:43:55;;;;;;;10.48;5.22;;;;;;;;;;4994094;28;20247;-64
2022/11/04 06:46:23;;;;;;;14.25;5.57;;;;;;;;;;4993863;28;20296;-64
2022/11/04 06:48:48;;;;;;;14.30;5.20;;;;;;;;;;4993116;28;20205;-64
2022/11/04 06:51:14;;;;;;;14.25;5.05;;;;;;;;;;5009063;28;20270;-64
2022/11/04 06:53:39;;;;;;;15.20;5.40;;;;;;;;;;4994587;28;20216;-63
2022/11/04 06:56:05;;;;;;;12.65;5.45;;;;;;;;;;5008180;28;20205;-61
2022/11/04 06:58:30;;;;;;;9.57;5.30;;;;;;;;;;4994649;28;20229;-63
2022/11/04 07:00:56;;;;;;;11.43;5.85;;;;;;;;;;4994620;28;20206;-64
2022/11/04 07:03:21;;;;;;;12.38;5.30;;;;;;;;;;4993284;28;20347;-63
2022/11/04 07:05:46;;;;;;;10.68;5.13;;;;;;;;;;4993678;28;20580;-63
2022/11/04 07:08:11;;;;;;;12.38;4.60;;;;;;;;;;4993216;28;20207;-62
2022/11/04 07:10:37;;;;;;;13.68;5.28;;;;;;;;;;4993559;28;20680;-63
2022/11/04 07:13:02;;;;;;;13.77;5.60;;;;;;;;;;4993638;28;20300;-62
2022/11/04 07:15:27;;;;;;;10.45;4.90;;;;;;;;;;4993409;28;20688;-63
2022/11/04 07:17:52;;;;;;;12.90;4.90;;;;;;;;;;4994512;28;20304;-62
2022/11/04 07:20:18;;;;;;;13.27;4.82;;;;;;;;;;4993645;28;20692;-63
2022/11/04 07:22:43;;;;;;;10.55;4.78;;;;;;;;;;4993528;28;20240;-62
2022/11/04 07:25:08;;;;;;;12.13;5.35;;;;;;;;;;4993704;28;20586;-62
2022/11/04 07:27:34;;;;;;;14.00;5.50;;;;;;;;;;4994365;28;20212;-62
2022/11/04 07:29:59;;;;;;;12.23;5.50;;;;;;;;;;4993238;28;20589;-62
2022/11/04 07:32:24;;;;;;;14.07;5.03;;;;;;;;;;4993683;28;20260;-62
2022/11/04 07:34:49;;;;;;;12.77;5.60;;;;;;;;;;4993676;28;20622;-62
2022/11/04 07:37:15;;;;;;;13.77;5.43;;;;;;;;;;4992781;28;20213;-62
2022/11/04 07:39:40;;;;;;;14.23;5.43;;;;;;;;;;4993790;28;20209;-62
2022/11/04 07:42:07;;;;;;;13.77;5.00;;;;;;;;;;4993521;28;20217;-63
2022/11/04 07:44:32;;;;;;;12.07;4.60;;;;;;;;;;4993191;28;20225;-62
2022/11/04 07:46:57;;;;;;;10.38;4.45;;;;;;;;;;4993757;28;20248;-62
2022/11/04 07:49:24;;;;;;;13.75;4.18;;;;;;;;;;4993456;28;20672;-62
2022/11/04 07:51:49;;;;;;;12.70;4.22;;;;;;;;;;5007790;28;20209;-62
2022/11/04 07:54:14;;;;;;;9.05;4.38;;;;;;;;;;4993116;28;20574;-62
2022/11/04 07:56:40;;;;;;;14.18;4.70;;;;;;;;;;4993710;28;20215;-62
2022/11/04 07:59:05;;;;;;;15.00;4.88;;;;;;;;;;4992653;28;20220;-62
2022/11/04 08:01:31;;;;;;;14.15;4.28;;;;;;;;;;5008503;28;20229;-62
2022/11/04 08:03:56;;;;;;;14.30;4.63;;;;;;;;;;4993563;28;20304;-62
2022/11/04 08:06:21;;;;;;;10.65;4.25;;;;;;;;;;5007129;28;20228;-62
2022/11/04 08:08:47;;;;;;;9.23;4.50;;;;;;;;;;4993270;28;20263;-62
2022/11/04 08:11:14;;;;;;;10.80;4.32;;;;;;;;;;4992997;28;20593;-62
2022/11/04 08:13:39;;;;;;;12.02;4.18;;;;;;;;;;4992704;28;20263;-62
2022/11/04 08:16:06;;;;;;;13.70;4.55;;;;;;;;;;4992912;28;20209;-62
2022/11/04 08:18:32;;;;;;;12.18;4.30;;;;;;;;;;4993471;28;20217;-62
2022/11/04 08:20:57;;;;;;;11.95;4.30;;;;;;;;;;4992479;28;20211;-62
2022/11/04 08:23:22;;;;;;;13.27;4.88;;;;;;;;;;4992713;28;20209;-61
2022/11/04 08:25:48;;;;;;;13.98;4.78;;;;;;;;;;4992397;28;20229;-62
2022/11/04 08:28:16;;;;;;;12.57;4.30;;;;;;;;;;4992836;28;20208;-62
2022/11/04 08:31:01;;;;;;;12.27;4.70;;;;;;;;;;4983633;28;20572;-63
2022/11/04 08:33:26;;;;;;;12.00;4.57;;;;;;;;;;5017158;28;20233;-64
2022/11/04 08:35:52;;;;;;;13.23;4.93;;;;;;;;;;4988394;28;20681;-64
2022/11/04 08:38:17;;;;;;;13.15;4.55;;;;;;;;;;4989341;28;20239;-63
2022/11/04 08:40:42;;;;;;;12.93;4.72;;;;;;;;;;4982520;28;20300;-64
2022/11/04 08:43:08;;;;;;;15.85;4.90;;;;;;;;;;4991367;28;20266;-63
2022/11/04 08:45:37;;;;;;;12.18;4.63;;;;;;;;;;4989613;28;20228;-64
2022/11/04 08:48:02;;;;;;;12.55;4.85;;;;;;;;;;5004649;28;20343;-63
2022/11/04 08:50:28;;;;;;;13.20;4.75;;;;;;;;;;4997755;28;20293;-63
2022/11/04 08:52:54;;;;;;;10.80;4.32;;;;;;;;;;4996649;28;20548;-63
2022/11/04 08:55:19;;;;;;;9.48;4.25;;;;;;;;;;4995670;28;20247;-63
2022/11/04 08:57:44;;;;;;;9.05;4.20;;;;;;;;;;4991350;28;20244;-64
2022/11/04 09:00:10;;;;;;;13.15;4.78;;;;;;;;;;4996632;28;20205;-63
2022/11/04 09:02:35;;;;;;;10.23;4.40;;;;;;;;;;4996118;28;20276;-63
2022/11/04 09:05:00;;;;;;;8.57;4.07;;;;;;;;;;4996448;28;20228;-63
2022/11/04 09:07:26;;;;;;;12.05;4.05;;;;;;;;;;4986229;28;20227;-63
2022/11/04 09:09:51;;;;;;;13.55;4.00;;;;;;;;;;4988765;28;20235;-64
2022/11/04 09:12:17;;;;;;;12.13;4.43;;;;;;;;;;4989513;28;20232;-63
2022/11/04 09:14:42;;;;;;;8.82;3.40;;;;;;;;;;4990834;28;20537;-63
2022/11/04 09:17:07;;;;;;;10.43;4.28;;;;;;;;;;4989814;28;20209;-63
2022/11/04 09:19:32;;;;;;;12.00;3.95;;;;;;;;;;4991585;28;20208;-63
2022/11/04 09:21:58;;;;;;;12.80;4.45;;;;;;;;;;4990820;28;20213;-63
2022/11/04 09:24:23;;;;;;;13.15;4.50;;;;;;;;;;4990884;28;20324;-64
2022/11/04 09:26:48;;;;;;;10.73;5.07;;;;;;;;;;4991622;28;20681;-64
2022/11/04 09:29:13;;;;;;;14.57;5.07;;;;;;;;;;4987696;28;20331;-63
2022/11/04 09:31:39;;;;;;;10.95;5.07;;;;;;;;;;5000767;28;20297;-63
2022/11/04 09:34:04;;;;;;;12.75;5.15;;;;;;;;;;4989022;28;20205;-63
2022/11/04 09:36:29;;;;;;;10.13;4.82;;;;;;;;;;5016495;28;20598;-64
2022/11/04 09:38:55;;;;;;;11.18;4.80;;;;;;;;;;5007486;28;20201;-63
2022/11/04 09:41:20;;;;;;;15.20;6.03;;;;;;;;;;4988851;28;20421;-62
2022/11/04 09:43:50;;;;;;;15.05;5.40;;;;;;;;;;4989884;28;20224;-62
2022/11/04 09:46:15;;;;;;;12.30;6.20;;;;;;;;;;4990690;28;20583;-63
2022/11/04 09:48:43;;;;;;;13.63;6.80;;;;;;;;;;5006333;28;20213;-63
2022/11/04 09:51:08;;;;;;;14.50;7.07;;;;;;;;;;4984600;28;20197;-63
2022/11/04 09:53:34;;;;;;;14.07;7.03;;;;;;;;;;4989914;28;20300;-63
2022/11/04 09:56:00;;;;;;;13.50;7.35;;;;;;;;;;4990346;28;20201;-62
2022/11/04 09:58:26;;;;;;;15.52;8.00;;;;;;;;;;5004786;28;20280;-63
2022/11/04 10:00:55;;;;;;;15.13;7.07;;;;;;;;;;4991556;28;20296;-62
2022/11/04 10:03:39;;;;;;;13.05;7.28;;;;;;;;;;4987488;28;20497;-62
2022/11/04 10:06:04;;;;;;;15.38;7.05;;;;;;;;;;5004517;28;20704;-63
2022/11/04 10:08:29;;;;;;;14.02;6.85;;;;;;;;;;4990702;28;20248;-63
2022/11/04 10:10:57;;;;;;;14.10;6.93;;;;;;;;;;4990842;28;20209;-63
2022/11/04 10:13:26;;;;;;;16.10;7.00;;;;;;;;;;5004910;28;20205;-63
2022/11/04 10:15:55;;;;;;;12.70;6.43;;;;;;;;;;5006194;28;20243;-62
2022/11/04 10:18:26;;;;;;;17.10;7.65;;;;;;;;;;5005181;28;20225;-62
2022/11/04 10:21:01;;;;;;;14.80;7.05;;;;;;;;;;4991179;28;20221;-63
2022/11/04 10:23:33;;;;;;;13.43;7.45;;;;;;;;;;4982232;28;20212;-62
2022/11/04 10:26:12;;;;;;;15.48;8.45;;;;;;;;;;4989977;28;20367;-63
2022/11/04 10:28:39;;;;;;;14.93;7.13;;;;;;;;;;4989122;28;20562;-62
2022/11/04 10:31:05;;;;;;;18.08;8.10;;;;;;;;;;4988874;28;20240;-62
2022/11/04 10:33:32;;;;;;;16.33;8.20;;;;;;;;;;5004983;28;20603;-62
2022/11/04 10:35:58;;;;;;;15.52;8.50;;;;;;;;;;4990137;28;20263;-62
2022/11/04 10:38:32;;;;;;;18.33;8.18;;;;;;;;;;5002417;28;20596;-62
2022/11/04 10:40:58;;;;;;;16.02;8.90;;;;;;;;;;5003669;28;20571;-62
2022/11/04 10:43:24;;;;;;;19.63;8.70;;;;;;;;;;4987769;28;20213;-62
2022/11/04 10:45:53;;;;;;;16.65;8.93;;;;;;;;;;4990236;28;20313;-63
2022/11/04 10:48:21;;;;;;;15.73;8.38;;;;;;;;;;5003224;28;20209;-63
2022/11/04 10:50:50;;;;;;;17.42;8.15;;;;;;;;;;4989993;28;20267;-63
2022/11/04 10:53:18;;;;;;;12.95;7.97;;;;;;;;;;5003888;28;20202;-63
2022/11/04 10:55:49;;;;;;;13.52;8.38;;;;;;;;;;4998826;28;20201;-64
2022/11/04 10:58:20;;;;;;;15.02;7.95;;;;;;;;;;4988913;28;20560;-64
2022/11/04 11:00:45;;;;;;;15.93;7.75;;;;;;;;;;4987898;28;20216;-64
2022/11/04 11:03:22;;;;;;;15.43;7.90;;;;;;;;;;4989277;28;20205;-64
2022/11/04 11:05:48;;;;;;;13.63;7.25;;;;;;;;;;4987744;28;20264;-63
2022/11/04 11:08:25;;;;;;;13.45;7.97;;;;;;;;;;4983982;28;20217;-63
2022/11/04 11:10:50;;;;;;;14.10;7.80;;;;;;;;;;5003261;28;20635;-63
2022/11/04 11:13:24;;;;;;;14.98;7.97;;;;;;;;;;4987998;28;20259;-63
2022/11/04 11:15:49;;;;;;;15.23;8.18;;;;;;;;;;5002896;28;20217;-63
2022/11/04 11:18:15;;;;;;;16.70;8.95;;;;;;;;;;5015859;28;20212;-64
2022/11/04 11:20:42;;;;;;;15.88;8.35;;;;;;;;;;5002371;28;20555;-63
2022/11/04 11:23:27;;;;;;;17.42;8.80;;;;;;;;;;5021773;28;20307;-64
2022/11/04 11:25:52;;;;;;;14.38;8.23;;;;;;;;;;5007893;28;20232;-63
2022/11/04 11:28:21;;;;;;;16.08;8.40;;;;;;;;;;5000644;28;20208;-63
2022/11/04 11:30:47;;;;;;;15.93;7.82;;;;;;;;;;5022650;28;20739;-63
2022/11/04 11:33:22;;;;;;;16.20;8.68;;;;;;;;;;5023441;28;20291;-63
2022/11/04 11:35:50;;;;;;;9.32;5.00;;;;;;;;;;5023077;28;20316;-62
2022/11/04 11:38:17;;;;;;;9.20;4.95;;;;;;;;;;5022868;28;20255;-63
2022/11/04 11:40:43;;;;;;;8.77;3.88;;;;;;;;;;4990581;28;20201;-62
2022/11/04 11:43:14;;;;;;;9.20;4.35;;;;;;;;;;4987240;28;20264;-61
2022/11/04 11:45:40;;;;;;;9.63;5.50;;;;;;;;;;4986551;28;20275;-63
2022/11/04 11:48:25;;;;;;;11.23;5.68;;;;;;;;;;4986209;28;20217;-63
2022/11/04 11:50:52;;;;;;;12.23;7.13;;;;;;;;;;4987804;28;20213;-63
2022/11/04 11:53:20;;;;;;;14.80;8.05;;;;;;;;;;5002479;28;20728;-63
2022/11/04 11:55:48;;;;;;;12.70;7.85;;;;;;;;;;4984317;28;20489;-62
2022/11/04 11:58:18;;;;;;;11.13;5.90;;;;;;;;;;5021066;28;20232;-63
2022/11/04 12:00:50;;;;;;;12.27;6.75;;;;;;;;;;4999301;28;20247;-63
2022/11/04 12:03:15;;;;;;;15.15;7.20;;;;;;;;;;4986686;28;20240;-63
2022/11/04 12:05:42;;;;;;;14.00;7.68;;;;;;;;;;4985553;28;20634;-63
2022/11/04 12:08:13;;;;;;;9.93;5.85;;;;;;;;;;4985505;28;20228;-63
2022/11/04 12:10:51;;;;;;;11.65;5.40;;;;;;;;;;5000349;28;20205;-63
2022/11/04 12:13:22;;;;;;;15.77;7.85;;;;;;;;;;4986538;28;20254;-63
2022/11/04 12:15:50;;;;;;;16.80;7.60;;;;;;;;;;5002135;28;20205;-63
2022/11/04 12:18:24;;;;;;;12.43;7.68;;;;;;;;;;4968769;28;20242;-63
2022/11/04 12:20:51;;;;;;;12.07;6.95;;;;;;;;;;4968129;28;20268;-63
2022/11/04 12:23:20;;;;;;;12.13;6.72;;;;;;;;;;4978776;28;20259;-63
2022/11/04 12:25:59;;;;;;;13.23;7.60;;;;;;;;;;4985487;28;20224;-62
2022/11/04 12:28:44;;;;;;;14.15;8.68;;;;;;;;;;4987658;28;20424;-62
2022/11/04 12:31:14;;;;;;;12.57;8.10;;;;;;;;;;4987576;28;20209;-62
2022/11/04 12:33:40;;;;;;;13.18;8.88;;;;;;;;;;4969831;28;20577;-62
2022/11/04 12:36:11;;;;;;;13.50;8.35;;;;;;;;;;4987438;28;20209;-63
2022/11/04 12:38:41;;;;;;;13.90;9.00;;;;;;;;;;4994992;28;20222;-63
2022/11/04 12:41:06;;;;;;;15.98;8.73;;;;;;;;;;4997742;28;20239;-63
2022/11/04 12:43:32;;;;;;;14.27;8.85;;;;;;;;;;4994706;28;20245;-63
2022/11/04 12:46:04;;;;;;;15.45;8.85;;;;;;;;;;4986322;28;20692;-63
2022/11/04 12:48:40;;;;;;;14.40;8.90;;;;;;;;;;4979461;28;20216;-63
2022/11/04 12:51:13;;;;;;;13.65;8.35;;;;;;;;;;4998007;28;20221;-63
2022/11/04 12:53:53;;;;;;;12.32;8.65;;;;;;;;;;4993162;28;20209;-63
2022/11/04 12:56:20;;;;;;;9.63;4.75;;;;;;;;;;5002927;28;20213;-65
2022/11/04 12:58:51;;;;;;;7.78;4.53;;;;;;;;;;4985321;28;20660;-65
2022/11/04 13:01:18;;;;;;;10.90;6.38;;;;;;;;;;4994141;28;20211;-65
2022/11/04 13:03:49;;;;;;;15.40;6.93;;;;;;;;;;5002988;28;20236;-65
2022/11/04 13:06:16;;;;;;;8.95;6.07;;;;;;;;;;4996970;28;20313;-65
2022/11/04 13:08:41;;;;;;;12.18;6.70;;;;;;;;;;4967444;28;20268;-64
2022/11/04 13:11:21;;;;;;;10.73;6.55;;;;;;;;;;4967886;28;20217;-65
2022/11/04 13:13:46;;;;;;;9.60;6.10;;;;;;;;;;4978312;28;20217;-65
2022/11/04 13:16:12;;;;;;;10.30;6.95;;;;;;;;;;5000809;28;20213;-65
2022/11/04 13:18:38;;;;;;;9.40;6.13;;;;;;;;;;5002305;28;20217;-65
2022/11/04 13:21:05;;;;;;;9.40;6.05;;;;;;;;;;5001453;28;20348;-65
2022/11/04 13:23:36;;;;;;;9.70;5.55;;;;;;;;;;5002483;28;20637;-65
2022/11/04 13:26:01;;;;;;;9.32;6.00;;;;;;;;;;5001721;28;20224;-64
2022/11/04 13:28:26;;;;;;;12.80;7.90;;;;;;;;;;5001367;28;20217;-65
2022/11/04 13:30:56;;;;;;;9.05;5.88;;;;;;;;;;5008354;28;20523;-65
2022/11/04 13:33:22;;;;;;;8.93;6.28;;;;;;;;;;5008176;28;20402;-65
2022/11/04 13:35:52;;;;;;;10.98;7.40;;;;;;;;;;5009577;28;20802;-65
2022/11/04 13:38:19;;;;;;;11.88;7.63;;;;;;;;;;5009367;28;20212;-65
2022/11/04 13:40:44;;;;;;;13.70;8.10;;;;;;;;;;5007397;28;20212;-65
2022/11/04 13:45:59;;;;;;;13.27;7.55;;;;;;;;;;4989115;28;20578;-61
2022/11/04 13:48:25;;;;;;;12.20;8.18;;;;;;;;;;4985737;28;20643;-63
2022/11/04 13:51:01;;;;;;;15.32;8.18;;;;;;;;;;4990046;28;20213;-64
2022/11/04 13:53:38;;;;;;;15.50;8.30;;;;;;;;;;4970551;28;20252;-64
2022/11/04 13:56:04;;;;;;;13.43;8.00;;;;;;;;;;4987279;28;20407;-63
2022/11/04 13:58:29;;;;;;;14.48;8.63;;;;;;;;;;4990137;28;20276;-64
2022/11/04 14:01:10;;;;;;;12.40;8.38;;;;;;;;;;5004973;28;20209;-64
2022/11/04 14:03:35;;;;;;;12.77;8.70;;;;;;;;;;4968297;28;20744;-64
2022/11/04 14:06:03;;;;;;;14.00;9.70;;;;;;;;;;4986309;28;20233;-63
2022/11/04 14:08:28;;;;;;;17.48;9.57;;;;;;;;;;5002306;28;20208;-64
2022/11/04 14:10:53;;;;;;;12.57;8.73;;;;;;;;;;5009188;28;20216;-63
2022/11/04 14:13:25;;;;;;;12.93;8.93;;;;;;;;;;5001016;28;20217;-63
2022/11/04 14:16:00;;;;;;;13.23;8.15;;;;;;;;;;4990454;28;20221;-64
2022/11/04 14:18:33;;;;;;;17.00;9.55;;;;;;;;;;4988969;28;20288;-63
2022/11/04 14:21:04;;;;;;;13.18;8.85;;;;;;;;;;5005007;28;20209;-63
2022/11/04 14:23:29;;;;;;;13.40;8.70;;;;;;;;;;4970246;28;20261;-62
2022/11/04 14:26:00;;;;;;;13.57;9.25;;;;;;;;;;4985078;28;20225;-62
2022/11/04 14:28:26;;;;;;;13.50;9.23;;;;;;;;;;5004290;28;20700;-63
2022/11/04 14:30:52;;;;;;;13.65;9.32;;;;;;;;;;5004313;28;20639;-63
2022/11/04 14:33:22;;;;;;;17.48;10.27;;;;;;;;;;5003557;28;20252;-63
2022/11/04 14:35:48;;;;;;;13.65;9.45;;;;;;;;;;5004948;28;20209;-62
2022/11/04 14:38:25;;;;;;;16.25;9.43;;;;;;;;;;5003967;28;20216;-62
2022/11/04 14:40:52;;;;;;;17.98;10.02;;;;;;;;;;4989992;28;20232;-62
2022/11/04 14:43:23;;;;;;;15.63;9.13;;;;;;;;;;4989126;28;20236;-62
2022/11/04 14:45:49;;;;;;;14.13;9.40;;;;;;;;;;5003093;28;20229;-62
2022/11/04 14:48:15;;;;;;;14.32;10.20;;;;;;;;;;4989196;28;20220;-63
2022/11/04 14:50:42;;;;;;;14.75;9.20;;;;;;;;;;5004836;28;20751;-61
2022/11/04 14:53:09;;;;;;;14.55;9.77;;;;;;;;;;4986256;28;20683;-62
2022/11/04 14:55:34;;;;;;;16.65;9.32;;;;;;;;;;5004697;28;20229;-61
2022/11/04 14:58:18;;;;;;;17.67;9.07;;;;;;;;;;4990871;28;20327;-61
2022/11/04 15:00:47;;;;;;;14.13;8.85;;;;;;;;;;4983342;28;20217;-62
2022/11/04 15:03:15;;;;;;;15.18;8.80;;;;;;;;;;4989334;28;20213;-61
2022/11/04 15:05:44;;;;;;;13.95;8.90;;;;;;;;;;5001701;28;20631;-61